createdAt,value
2017-02-24T00:00:33.174Z,986.63
2017-02-24T00:01:42.910Z,986.7
2017-02-24T00:02:52.379Z,986.77
2017-02-24T00:04:02.530Z,987.17
2017-02-24T00:05:12.285Z,986.93
2017-02-24T00:06:22.017Z,987.05
2017-02-24T00:07:31.348Z,987.24
2017-02-24T00:08:40.810Z,987.19
2017-02-24T00:09:50.963Z,987.25
2017-02-24T00:11:00.280Z,987.3
2017-02-24T00:12:10.417Z,987.31
2017-02-24T00:13:19.755Z,987.64
2017-02-24T00:14:29.132Z,987.6
2017-02-24T00:15:38.859Z,987.53
2017-02-24T00:16:48.996Z,987.6
2017-02-24T00:17:57.904Z,987.76
2017-02-24T00:19:06.817Z,987.72
2017-02-24T00:20:16.383Z,987.78
2017-02-24T00:21:25.322Z,987.79
2017-02-24T00:22:34.284Z,987.78
2017-02-24T00:23:43.212Z,988.12
2017-02-24T00:24:53.362Z,987.88
2017-02-24T00:26:03.263Z,988.05
2017-02-24T00:27:12.576Z,988.61
2017-02-24T00:28:22.304Z,988.1
2017-02-24T00:29:32.441Z,988.21
2017-02-24T00:30:42.178Z,988.37
2017-02-24T00:31:52.591Z,988.21
2017-02-24T00:33:01.919Z,988.38
2017-02-24T00:34:11.286Z,988.43
2017-02-24T00:35:21.028Z,988.48
2017-02-24T00:36:29.935Z,988.48
2017-02-24T00:37:39.006Z,988.66
2017-02-24T00:38:48.333Z,988.74
2017-02-24T00:39:57.669Z,988.75
2017-02-24T00:41:07.006Z,988.71
2017-02-24T00:42:16.727Z,988.79
2017-02-24T00:43:26.039Z,988.95
2017-02-24T00:44:35.376Z,989.03
2017-02-24T00:45:44.703Z,989.04
2017-02-24T00:46:54.018Z,989.09
2017-02-24T00:48:03.350Z,989.23
2017-02-24T00:49:12.402Z,989.24
2017-02-24T00:50:21.723Z,989.42
2017-02-24T00:51:31.867Z,989.38
2017-02-24T00:52:41.192Z,989.44
2017-02-24T00:53:50.118Z,989.41
2017-02-24T00:55:00.420Z,989.45
2017-02-24T00:56:10.594Z,989.57
2017-02-24T00:57:20.315Z,989.52
2017-02-24T00:58:29.235Z,989.51
2017-02-24T00:59:38.975Z,989.81
2017-02-24T01:00:48.956Z,989.72
2017-02-24T01:01:58.291Z,989.8
2017-02-24T01:03:08.019Z,990.03
2017-02-24T01:04:17.761Z,990.01
2017-02-24T01:05:27.091Z,990.16
2017-02-24T01:06:36.201Z,990.03
2017-02-24T01:07:45.552Z,990.16
2017-02-24T01:08:54.503Z,990.09
2017-02-24T01:10:03.452Z,990.58
2017-02-24T01:11:13.600Z,990.27
2017-02-24T01:12:23.129Z,990.21
2017-02-24T01:13:32.056Z,990.34
2017-02-24T01:14:41.378Z,990.49
2017-02-24T01:15:50.702Z,990.49
2017-02-24T01:16:59.627Z,990.53
2017-02-24T01:18:09.500Z,990.58
2017-02-24T01:19:18.824Z,990.82
2017-02-24T01:20:28.969Z,990.68
2017-02-24T01:21:39.535Z,990.68
2017-02-24T01:22:49.254Z,990.86
2017-02-24T01:23:58.995Z,991.14
2017-02-24T01:25:09.146Z,991.5
2017-02-24T01:26:18.467Z,990.95
2017-02-24T01:27:27.373Z,991.09
2017-02-24T01:28:36.307Z,991.61
2017-02-24T01:29:46.056Z,991.26
2017-02-24T01:30:55.806Z,991.3
2017-02-24T01:32:05.123Z,991.44
2017-02-24T01:33:14.448Z,991.39
2017-02-24T01:34:23.366Z,991.33
2017-02-24T01:35:33.144Z,991.59
2017-02-24T01:36:43.285Z,991.5
2017-02-24T01:37:53.057Z,991.49
2017-02-24T01:39:02.386Z,991.78
2017-02-24T01:40:12.116Z,991.9
2017-02-24T01:41:21.782Z,991.89
2017-02-24T01:42:30.688Z,991.9
2017-02-24T01:43:40.017Z,991.93
2017-02-24T01:44:49.744Z,991.96
2017-02-24T01:46:00.297Z,992.04
2017-02-24T01:47:10.182Z,992.05
2017-02-24T01:48:20.338Z,992.16
2017-02-24T01:49:29.244Z,992.61
2017-02-24T01:50:39.391Z,992.23
2017-02-24T01:51:49.127Z,992.47
2017-02-24T01:52:58.496Z,992.49
2017-02-24T01:54:08.240Z,992.47
2017-02-24T01:55:17.582Z,992.45
2017-02-24T01:56:26.960Z,992.62
2017-02-24T01:57:36.692Z,992.57
2017-02-24T01:58:45.620Z,992.72
2017-02-24T01:59:55.746Z,992.77
2017-02-24T02:01:05.492Z,992.83
2017-02-24T02:02:14.816Z,992.87
2017-02-24T02:03:24.136Z,992.91
2017-02-24T02:04:33.891Z,993.07
2017-02-24T02:05:42.809Z,993.36
2017-02-24T02:06:52.156Z,993.08
2017-02-24T02:08:01.082Z,993.12
2017-02-24T02:09:10.402Z,993.22
2017-02-24T02:10:19.883Z,993.31
2017-02-24T02:11:29.214Z,993.27
2017-02-24T02:12:38.961Z,993.44
2017-02-24T02:13:48.285Z,993.44
2017-02-24T02:14:57.621Z,993.66
2017-02-24T02:16:07.415Z,993.55
2017-02-24T02:17:17.149Z,993.59
2017-02-24T02:18:26.064Z,993.85
2017-02-24T02:19:34.967Z,993.78
2017-02-24T02:20:44.707Z,993.84
2017-02-24T02:21:54.088Z,993.97
2017-02-24T02:23:03.426Z,993.86
2017-02-24T02:24:13.163Z,993.83
2017-02-24T02:25:22.535Z,994.01
2017-02-24T02:26:32.276Z,994.06
2017-02-24T02:27:41.191Z,994.16
2017-02-24T02:28:51.342Z,994.23
2017-02-24T02:30:01.477Z,994.23
2017-02-24T02:31:10.828Z,994.34
2017-02-24T02:32:20.572Z,994.29
2017-02-24T02:33:30.065Z,994.51
2017-02-24T02:34:40.612Z,994.42
2017-02-24T02:35:51.159Z,994.46
2017-02-24T02:37:00.889Z,994.5
2017-02-24T02:38:10.207Z,994.69
2017-02-24T02:39:19.580Z,994.52
2017-02-24T02:40:29.711Z,994.61
2017-02-24T02:41:39.437Z,994.86
2017-02-24T02:42:48.355Z,994.84
2017-02-24T02:43:58.078Z,994.87
2017-02-24T02:45:08.376Z,994.98
2017-02-24T02:46:18.128Z,995
2017-02-24T02:47:28.282Z,995.08
2017-02-24T02:48:37.217Z,995.19
2017-02-24T02:49:47.352Z,995.13
2017-02-24T02:50:56.530Z,995.23
2017-02-24T02:52:05.858Z,995.41
2017-02-24T02:53:15.172Z,995.47
2017-02-24T02:54:24.097Z,995.52
2017-02-24T02:55:33.434Z,995.56
2017-02-24T02:56:42.861Z,995.57
2017-02-24T02:57:52.588Z,995.57
2017-02-24T02:59:02.345Z,995.78
2017-02-24T03:00:12.483Z,995.81
2017-02-24T03:01:22.616Z,995.97
2017-02-24T03:02:32.833Z,995.92
2017-02-24T03:03:42.580Z,995.94
2017-02-24T03:04:51.485Z,995.96
2017-02-24T03:06:00.415Z,996.12
2017-02-24T03:07:09.756Z,996.21
2017-02-24T03:08:19.558Z,996.43
2017-02-24T03:09:30.118Z,996.37
2017-02-24T03:10:39.851Z,996.47
2017-02-24T03:11:48.763Z,996.47
2017-02-24T03:12:58.527Z,996.69
2017-02-24T03:14:07.589Z,996.64
2017-02-24T03:15:18.146Z,996.53
2017-02-24T03:16:27.901Z,996.59
2017-02-24T03:17:38.030Z,996.66
2017-02-24T03:18:46.938Z,996.85
2017-02-24T03:19:56.836Z,996.78
2017-02-24T03:21:06.971Z,996.84
2017-02-24T03:22:15.887Z,996.94
2017-02-24T03:23:26.029Z,996.84
2017-02-24T03:24:34.953Z,996.85
2017-02-24T03:25:44.891Z,996.91
2017-02-24T03:26:54.625Z,996.89
2017-02-24T03:28:04.757Z,996.97
2017-02-24T03:29:14.085Z,996.95
2017-02-24T03:30:22.994Z,996.99
2017-02-24T03:31:32.773Z,996.89
2017-02-24T03:32:42.927Z,996.8
2017-02-24T03:33:52.679Z,996.96
2017-02-24T03:35:02.416Z,997.05
2017-02-24T03:36:12.572Z,997.08
2017-02-24T03:37:22.600Z,997.14
2017-02-24T03:38:32.322Z,997.23
2017-02-24T03:39:41.261Z,997.19
2017-02-24T03:40:50.578Z,997.22
2017-02-24T03:41:59.521Z,997.23
2017-02-24T03:43:09.418Z,997.24
2017-02-24T03:44:18.735Z,997.31
2017-02-24T03:45:28.880Z,997.37
2017-02-24T03:46:39.021Z,997.41
2017-02-24T03:47:49.197Z,997.41
2017-02-24T03:48:58.666Z,997.41
2017-02-24T03:50:08.427Z,997.49
2017-02-24T03:51:18.171Z,997.55
2017-02-24T03:52:27.906Z,997.55
2017-02-24T03:53:37.644Z,997.55
2017-02-24T03:54:47.158Z,997.6
2017-02-24T03:55:56.499Z,997.59
2017-02-24T03:57:06.633Z,997.72
2017-02-24T03:58:16.363Z,997.68
2017-02-24T03:59:25.272Z,997.71
2017-02-24T04:00:35.244Z,997.97
2017-02-24T04:01:45.392Z,997.81
2017-02-24T04:02:55.544Z,997.87
2017-02-24T04:04:04.858Z,997.82
2017-02-24T04:05:14.187Z,997.98
2017-02-24T04:06:24.226Z,997.9
2017-02-24T04:07:33.954Z,997.95
2017-02-24T04:08:43.691Z,997.93
2017-02-24T04:09:53.032Z,998.07
2017-02-24T04:11:02.777Z,998
2017-02-24T04:12:12.378Z,998.1
2017-02-24T04:13:22.929Z,998.07
2017-02-24T04:14:32.248Z,998.13
2017-02-24T04:15:41.153Z,998.18
2017-02-24T04:16:50.477Z,998.26
2017-02-24T04:17:59.858Z,998.18
2017-02-24T04:19:10.412Z,998.18
2017-02-24T04:20:19.328Z,998.22
2017-02-24T04:21:28.644Z,998.26
2017-02-24T04:22:37.986Z,998.33
2017-02-24T04:23:48.014Z,998.34
2017-02-24T04:24:57.745Z,998.4
2017-02-24T04:26:07.479Z,998.49
2017-02-24T04:27:17.633Z,998.5
2017-02-24T04:28:27.779Z,998.57
2017-02-24T04:29:37.656Z,998.57
2017-02-24T04:30:47.834Z,998.66
2017-02-24T04:31:57.570Z,998.7
2017-02-24T04:33:07.720Z,998.74
2017-02-24T04:34:17.913Z,998.76
2017-02-24T04:35:27.811Z,998.8
2017-02-24T04:36:37.145Z,998.89
2017-02-24T04:37:46.074Z,998.89
2017-02-24T04:38:55.387Z,998.93
2017-02-24T04:40:05.520Z,999
2017-02-24T04:41:14.688Z,999.06
2017-02-24T04:42:24.011Z,999.03
2017-02-24T04:43:32.920Z,999.03
2017-02-24T04:44:42.250Z,999.05
2017-02-24T04:45:51.572Z,999.19
2017-02-24T04:47:01.308Z,999.28
2017-02-24T04:48:10.646Z,999.41
2017-02-24T04:49:19.972Z,999.33
2017-02-24T04:50:29.694Z,999.37
2017-02-24T04:51:39.014Z,999.31
2017-02-24T04:52:48.500Z,999.36
2017-02-24T04:53:58.222Z,999.37
2017-02-24T04:55:07.536Z,999.25
2017-02-24T04:56:16.856Z,999.34
2017-02-24T04:57:26.592Z,999.38
2017-02-24T04:58:36.802Z,999.39
2017-02-24T04:59:45.724Z,999.45
2017-02-24T05:00:55.056Z,999.49
2017-02-24T05:02:05.192Z,999.61
2017-02-24T05:03:14.915Z,999.57
2017-02-24T05:04:24.690Z,999.62
2017-02-24T05:05:34.437Z,999.66
2017-02-24T05:06:44.606Z,999.77
2017-02-24T05:07:54.741Z,999.75
2017-02-24T05:09:04.897Z,999.8
2017-02-24T05:10:14.743Z,999.9
2017-02-24T05:11:23.665Z,999.9
2017-02-24T05:12:33.799Z,999.94
2017-02-24T05:13:43.129Z,999.98
2017-02-24T05:14:52.069Z,999.97
2017-02-24T05:16:01.028Z,1000
2017-02-24T05:17:10.355Z,1000.04
2017-02-24T05:18:20.103Z,1000.03
2017-02-24T05:19:29.011Z,1000.1
2017-02-24T05:20:38.355Z,1000.16
2017-02-24T05:21:47.383Z,1000.13
2017-02-24T05:22:57.116Z,1000.12
2017-02-24T05:24:06.436Z,1000.22
2017-02-24T05:25:15.360Z,1000.2
2017-02-24T05:26:24.692Z,1000.28
2017-02-24T05:27:34.262Z,1000.26
2017-02-24T05:28:43.179Z,1000.33
2017-02-24T05:29:52.093Z,1000.39
2017-02-24T05:31:01.030Z,1000.35
2017-02-24T05:32:10.350Z,1000.4
2017-02-24T05:33:19.731Z,1000.48
2017-02-24T05:34:29.470Z,1000.43
2017-02-24T05:35:39.199Z,1000.39
2017-02-24T05:36:48.132Z,1000.39
2017-02-24T05:37:57.449Z,1000.48
2017-02-24T05:39:06.755Z,1000.48
2017-02-24T05:40:16.492Z,1000.59
2017-02-24T05:41:25.820Z,1000.55
2017-02-24T05:42:35.576Z,1000.54
2017-02-24T05:43:44.891Z,1000.67
2017-02-24T05:44:54.003Z,1000.73
2017-02-24T05:46:03.332Z,1000.77
2017-02-24T05:47:13.083Z,1000.87
2017-02-24T05:48:22.430Z,1000.9
2017-02-24T05:49:31.802Z,1000.94
2017-02-24T05:50:40.882Z,1000.93
2017-02-24T05:51:51.026Z,1001.1
2017-02-24T05:53:00.372Z,1000.99
2017-02-24T05:54:10.096Z,1001.04
2017-02-24T05:55:19.418Z,1001.15
2017-02-24T05:56:28.893Z,1001.14
2017-02-24T05:57:38.242Z,1001.23
2017-02-24T05:58:47.564Z,1001.36
2017-02-24T05:59:56.883Z,1001.34
2017-02-24T06:01:06.625Z,1001.37
2017-02-24T06:02:16.464Z,1001.37
2017-02-24T06:03:26.197Z,1001.4
2017-02-24T06:04:35.119Z,1001.38
2017-02-24T06:05:44.882Z,1001.41
2017-02-24T06:06:53.818Z,1001.44
2017-02-24T06:08:03.405Z,1001.5
2017-02-24T06:09:13.137Z,1001.54
2017-02-24T06:10:22.874Z,1001.59
2017-02-24T06:11:32.192Z,1001.62
2017-02-24T06:12:41.942Z,1001.58
2017-02-24T06:13:51.950Z,1001.74
2017-02-24T06:15:01.288Z,1001.65
2017-02-24T06:16:10.194Z,1001.82
2017-02-24T06:17:19.683Z,1001.8
2017-02-24T06:18:29.448Z,1001.88
2017-02-24T06:19:39.487Z,1001.85
2017-02-24T06:20:49.646Z,1001.94
2017-02-24T06:21:58.982Z,1001.88
2017-02-24T06:23:08.312Z,1002.02
2017-02-24T06:24:17.642Z,1002.03
2017-02-24T06:25:27.837Z,1002.03
2017-02-24T06:26:36.778Z,1002.14
2017-02-24T06:27:45.751Z,1002.17
2017-02-24T06:28:55.080Z,1002.17
2017-02-24T06:30:04.811Z,1002.2
2017-02-24T06:31:14.951Z,1002.2
2017-02-24T06:32:24.294Z,1002.18
2017-02-24T06:33:33.661Z,1002.36
2017-02-24T06:34:42.604Z,1002.35
2017-02-24T06:35:51.732Z,1002.37
2017-02-24T06:37:01.069Z,1002.4
2017-02-24T06:38:10.001Z,1002.38
2017-02-24T06:39:19.341Z,1002.42
2017-02-24T06:40:28.683Z,1002.42
2017-02-24T06:41:38.426Z,1002.52
2017-02-24T06:42:47.740Z,1002.55
2017-02-24T06:43:57.480Z,1002.64
2017-02-24T06:45:07.219Z,1002.66
2017-02-24T06:46:17.367Z,1002.74
2017-02-24T06:47:26.683Z,1002.76
2017-02-24T06:48:36.009Z,1002.91
2017-02-24T06:49:45.331Z,1002.92
2017-02-24T06:50:54.648Z,1002.98
2017-02-24T06:52:04.802Z,1002.97
2017-02-24T06:53:14.145Z,1002.98
2017-02-24T06:54:23.062Z,1003
2017-02-24T06:55:32.384Z,1003.11
2017-02-24T06:56:41.867Z,1003.06
2017-02-24T06:57:50.783Z,1003.22
2017-02-24T06:58:59.709Z,1003.19
2017-02-24T07:00:08.622Z,1003.21
2017-02-24T07:01:17.949Z,1003.29
2017-02-24T07:02:27.853Z,1003.31
2017-02-24T07:03:37.195Z,1003.44
2017-02-24T07:04:46.950Z,1003.45
2017-02-24T07:05:56.283Z,1003.5
2017-02-24T07:07:05.608Z,1003.46
2017-02-24T07:08:15.500Z,1003.54
2017-02-24T07:09:24.459Z,1003.57
2017-02-24T07:10:34.218Z,1003.66
2017-02-24T07:11:43.128Z,1003.69
2017-02-24T07:12:52.466Z,1003.78
2017-02-24T07:14:02.344Z,1003.69
2017-02-24T07:15:12.094Z,1003.81
2017-02-24T07:16:21.012Z,1003.79
2017-02-24T07:17:30.747Z,1003.93
2017-02-24T07:18:40.128Z,1003.98
2017-02-24T07:19:49.943Z,1004.04
2017-02-24T07:20:59.719Z,1004.05
2017-02-24T07:22:09.484Z,1004.06
2017-02-24T07:23:19.222Z,1004.16
2017-02-24T07:24:28.577Z,1004.22
2017-02-24T07:25:37.991Z,1004.26
2017-02-24T07:26:46.903Z,1004.3
2017-02-24T07:27:56.248Z,1004.44
2017-02-24T07:29:05.606Z,1004.43
2017-02-24T07:30:14.517Z,1004.46
2017-02-24T07:31:23.586Z,1004.53
2017-02-24T07:32:32.927Z,1004.56
2017-02-24T07:33:41.833Z,1004.57
2017-02-24T07:34:51.567Z,1004.59
2017-02-24T07:36:01.314Z,1004.66
2017-02-24T07:37:10.494Z,1004.72
2017-02-24T07:38:19.401Z,1004.71
2017-02-24T07:39:29.136Z,1004.8
2017-02-24T07:40:39.269Z,1004.81
2017-02-24T07:41:48.205Z,1004.78
2017-02-24T07:42:58.241Z,1004.87
2017-02-24T07:44:07.982Z,1004.96
2017-02-24T07:45:17.716Z,1004.97
2017-02-24T07:46:26.625Z,1004.99
2017-02-24T07:47:35.969Z,1004.99
2017-02-24T07:48:44.900Z,1005.03
2017-02-24T07:49:54.259Z,1005.1
2017-02-24T07:51:03.593Z,1005.14
2017-02-24T07:52:12.922Z,1005.18
2017-02-24T07:53:22.253Z,1005.3
2017-02-24T07:54:31.619Z,1005.27
2017-02-24T07:55:40.945Z,1005.3
2017-02-24T07:56:50.273Z,1005.34
2017-02-24T07:57:59.612Z,1005.32
2017-02-24T07:59:09.353Z,1005.37
2017-02-24T08:00:18.513Z,1005.43
2017-02-24T08:01:27.465Z,1005.52
2017-02-24T08:02:36.803Z,1005.53
2017-02-24T08:03:46.541Z,1005.56
2017-02-24T08:04:55.457Z,1005.6
2017-02-24T08:06:05.342Z,1005.66
2017-02-24T08:07:14.687Z,1005.65
2017-02-24T08:08:24.033Z,1005.74
2017-02-24T08:09:33.369Z,1005.72
2017-02-24T08:10:42.701Z,1005.78
2017-02-24T08:11:51.676Z,1005.86
2017-02-24T08:13:01.002Z,1005.84
2017-02-24T08:14:10.318Z,1005.85
2017-02-24T08:15:19.226Z,1005.86
2017-02-24T08:16:28.156Z,1005.92
2017-02-24T08:17:37.455Z,1005.96
2017-02-24T08:18:47.179Z,1006.06
2017-02-24T08:19:56.925Z,1006.12
2017-02-24T08:21:07.085Z,1006.14
2017-02-24T08:22:16.411Z,1006.23
2017-02-24T08:23:25.504Z,1006.14
2017-02-24T08:24:34.838Z,1006.15
2017-02-24T08:25:44.583Z,1006.26
2017-02-24T08:26:53.917Z,1006.26
2017-02-24T08:28:03.236Z,1006.37
2017-02-24T08:29:12.837Z,1006.34
2017-02-24T08:30:22.167Z,1006.44
2017-02-24T08:31:32.726Z,1006.42
2017-02-24T08:32:42.042Z,1006.42
2017-02-24T08:33:51.785Z,1006.51
2017-02-24T08:35:01.594Z,1006.57
2017-02-24T08:36:10.546Z,1006.65
2017-02-24T08:37:19.864Z,1006.68
2017-02-24T08:38:28.771Z,1006.77
2017-02-24T08:39:38.089Z,1006.7
2017-02-24T08:40:48.075Z,1006.83
2017-02-24T08:41:57.391Z,1006.76
2017-02-24T08:43:06.303Z,1006.83
2017-02-24T08:44:16.035Z,1006.87
2017-02-24T08:45:25.368Z,1006.91
2017-02-24T08:46:35.402Z,1006.95
2017-02-24T08:47:44.748Z,1006.93
2017-02-24T08:48:54.904Z,1007
2017-02-24T08:50:04.233Z,1007.02
2017-02-24T08:51:13.155Z,1007.08
2017-02-24T08:52:23.657Z,1007.06
2017-02-24T08:53:32.983Z,1007.12
2017-02-24T08:54:42.728Z,1007.14
2017-02-24T08:55:51.666Z,1007.16
2017-02-24T08:57:01.834Z,1007.24
2017-02-24T08:58:11.200Z,1007.24
2017-02-24T08:59:21.331Z,1007.33
2017-02-24T09:00:30.693Z,1007.3
2017-02-24T09:01:40.025Z,1007.34
2017-02-24T09:02:49.756Z,1007.32
2017-02-24T09:03:58.732Z,1007.35
2017-02-24T09:05:08.475Z,1007.39
2017-02-24T09:06:17.395Z,1007.34
2017-02-24T09:07:26.716Z,1007.43
2017-02-24T09:08:36.058Z,1007.45
2017-02-24T09:09:46.263Z,1007.5
2017-02-24T09:10:55.638Z,1007.6
2017-02-24T09:12:05.792Z,1007.6
2017-02-24T09:13:14.745Z,1007.65
2017-02-24T09:14:24.497Z,1007.63
2017-02-24T09:15:34.150Z,1007.67
2017-02-24T09:16:43.496Z,1007.62
2017-02-24T09:17:53.638Z,1007.64
2017-02-24T09:19:02.958Z,1007.7
2017-02-24T09:20:12.329Z,1007.67
2017-02-24T09:21:21.405Z,1007.74
2017-02-24T09:22:30.727Z,1007.74
2017-02-24T09:23:40.460Z,1007.75
2017-02-24T09:24:49.801Z,1007.78
2017-02-24T09:25:59.541Z,1007.81
2017-02-24T09:27:08.607Z,1007.9
2017-02-24T09:28:17.521Z,1007.93
2017-02-24T09:29:26.853Z,1007.95
2017-02-24T09:30:35.777Z,1007.96
2017-02-24T09:31:45.152Z,1007.94
2017-02-24T09:32:54.735Z,1007.98
2017-02-24T09:34:04.083Z,1008
2017-02-24T09:35:13.834Z,1008.07
2017-02-24T09:36:22.747Z,1008.12
2017-02-24T09:37:32.064Z,1008.11
2017-02-24T09:38:41.446Z,1008.11
2017-02-24T09:39:50.780Z,1008.13
2017-02-24T09:41:00.120Z,1008.17
2017-02-24T09:42:09.469Z,1008.23
2017-02-24T09:43:18.387Z,1008.27
2017-02-24T09:44:28.180Z,1008.28
2017-02-24T09:45:37.912Z,1008.27
2017-02-24T09:46:46.846Z,1008.29
2017-02-24T09:47:56.188Z,1008.44
2017-02-24T09:49:05.921Z,1008.5
2017-02-24T09:50:15.544Z,1008.52
2017-02-24T09:51:24.861Z,1008.52
2017-02-24T09:52:33.798Z,1008.51
2017-02-24T09:53:42.729Z,1008.5
2017-02-24T09:54:52.063Z,1008.57
2017-02-24T09:56:01.159Z,1008.66
2017-02-24T09:57:10.482Z,1008.65
2017-02-24T09:58:20.224Z,1008.65
2017-02-24T09:59:29.192Z,1008.72
2017-02-24T10:00:38.529Z,1008.79
2017-02-24T10:01:48.457Z,1008.75
2017-02-24T10:02:57.786Z,1008.8
2017-02-24T10:04:07.105Z,1008.87
2017-02-24T10:05:17.240Z,1008.73
2017-02-24T10:06:26.565Z,1008.91
2017-02-24T10:07:35.603Z,1008.84
2017-02-24T10:08:45.331Z,1008.89
2017-02-24T10:09:54.676Z,1008.9
2017-02-24T10:11:04.026Z,1008.9
2017-02-24T10:12:13.366Z,1008.98
2017-02-24T10:13:23.214Z,1009.06
2017-02-24T10:14:32.146Z,1008.93
2017-02-24T10:15:41.488Z,1008.89
2017-02-24T10:16:50.427Z,1008.89
2017-02-24T10:18:00.164Z,1008.97
2017-02-24T10:19:09.225Z,1009.04
2017-02-24T10:20:19.361Z,1009.11
2017-02-24T10:21:29.110Z,1008.99
2017-02-24T10:22:38.444Z,1009.04
2017-02-24T10:23:48.198Z,1009.02
2017-02-24T10:24:57.807Z,1009.08
2017-02-24T10:26:07.126Z,1009
2017-02-24T10:27:16.468Z,1009.04
2017-02-24T10:28:25.827Z,1009.06
2017-02-24T10:29:35.157Z,1009.13
2017-02-24T10:30:44.583Z,1009.07
2017-02-24T10:31:54.728Z,1009.15
2017-02-24T10:33:04.075Z,1009.23
2017-02-24T10:34:13.399Z,1009.19
2017-02-24T10:35:23.545Z,1009.19
2017-02-24T10:36:33.697Z,1009.14
2017-02-24T10:37:43.023Z,1009.29
2017-02-24T10:38:52.341Z,1009.3
2017-02-24T10:40:01.672Z,1009.3
2017-02-24T10:41:10.637Z,1009.32
2017-02-24T10:42:20.121Z,1009.34
2017-02-24T10:43:29.891Z,1009.35
2017-02-24T10:44:39.664Z,1009.37
2017-02-24T10:45:49.385Z,1009.4
2017-02-24T10:46:58.313Z,1009.53
2017-02-24T10:48:07.703Z,1009.39
2017-02-24T10:49:17.452Z,1009.52
2017-02-24T10:50:26.822Z,1009.54
2017-02-24T10:51:36.155Z,1009.5
2017-02-24T10:52:45.494Z,1009.53
2017-02-24T10:53:55.076Z,1009.5
2017-02-24T10:55:04.024Z,1009.55
2017-02-24T10:56:13.381Z,1009.57
2017-02-24T10:57:22.707Z,1009.64
2017-02-24T10:58:31.645Z,1009.68
2017-02-24T10:59:41.600Z,1009.72
2017-02-24T11:00:50.952Z,1009.73
2017-02-24T11:02:00.684Z,1009.67
2017-02-24T11:03:09.597Z,1009.69
2017-02-24T11:04:19.348Z,1009.73
2017-02-24T11:05:28.566Z,1009.68
2017-02-24T11:06:37.885Z,1009.7
2017-02-24T11:07:47.235Z,1009.83
2017-02-24T11:08:56.560Z,1009.79
2017-02-24T11:10:05.905Z,1009.79
2017-02-24T11:11:15.251Z,1009.89
2017-02-24T11:12:24.572Z,1009.86
2017-02-24T11:13:33.501Z,1009.82
2017-02-24T11:14:42.413Z,1009.85
2017-02-24T11:15:51.750Z,1009.94
2017-02-24T11:17:01.245Z,1009.93
2017-02-24T11:18:10.594Z,1009.96
2017-02-24T11:19:19.926Z,1009.94
2017-02-24T11:20:30.075Z,1009.96
2017-02-24T11:21:39.803Z,1009.99
2017-02-24T11:22:49.140Z,1010.05
2017-02-24T11:23:58.484Z,1010.01
2017-02-24T11:25:08.227Z,1009.96
2017-02-24T11:26:17.538Z,1010.03
2017-02-24T11:27:26.484Z,1010.04
2017-02-24T11:28:36.224Z,1010.08
2017-02-24T11:29:45.139Z,1010.09
2017-02-24T11:30:54.453Z,1010.09
2017-02-24T11:32:04.233Z,1010.16
2017-02-24T11:33:13.971Z,1010.07
2017-02-24T11:34:22.880Z,1010.07
2017-02-24T11:35:32.199Z,1010.07
2017-02-24T11:36:41.525Z,1010.11
2017-02-24T11:37:51.289Z,1010.1
2017-02-24T11:39:01.048Z,1010.17
2017-02-24T11:40:09.978Z,1010.29
2017-02-24T11:41:19.299Z,1010.15
2017-02-24T11:42:28.459Z,1010.16
2017-02-24T11:43:37.792Z,1010.22
2017-02-24T11:44:47.128Z,1010.17
2017-02-24T11:45:56.046Z,1010.29
2017-02-24T11:47:05.774Z,1010.23
2017-02-24T11:48:15.765Z,1010.28
2017-02-24T11:49:25.105Z,1010.23
2017-02-24T11:50:34.429Z,1010.21
2017-02-24T11:51:43.763Z,1010.26
2017-02-24T11:52:53.904Z,1010.23
2017-02-24T11:54:03.322Z,1010.3
2017-02-24T11:55:13.069Z,1010.27
2017-02-24T11:56:23.224Z,1010.29
2017-02-24T11:57:32.954Z,1010.32
2017-02-24T11:58:41.910Z,1010.36
2017-02-24T11:59:51.001Z,1010.26
2017-02-24T12:01:00.727Z,1010.42
2017-02-24T12:02:10.903Z,1010.31
2017-02-24T12:03:20.226Z,1010.28
2017-02-24T12:04:29.965Z,1010.41
2017-02-24T12:05:40.043Z,1010.4
2017-02-24T12:06:49.403Z,1010.41
2017-02-24T12:07:58.383Z,1010.43
2017-02-24T12:09:07.712Z,1010.43
2017-02-24T12:10:17.453Z,1010.44
2017-02-24T12:11:27.503Z,1010.43
2017-02-24T12:12:37.242Z,1010.45
2017-02-24T12:13:46.981Z,1010.48
2017-02-24T12:14:56.304Z,1010.49
2017-02-24T12:16:05.628Z,1010.46
2017-02-24T12:17:15.096Z,1010.4
2017-02-24T12:18:24.861Z,1010.45
2017-02-24T12:19:33.814Z,1010.48
2017-02-24T12:20:43.988Z,1010.47
2017-02-24T12:21:53.725Z,1010.55
2017-02-24T12:23:03.529Z,1010.53
2017-02-24T12:24:12.858Z,1010.54
2017-02-24T12:25:22.193Z,1010.59
2017-02-24T12:26:31.105Z,1010.61
2017-02-24T12:27:40.430Z,1010.65
2017-02-24T12:28:49.920Z,1010.69
2017-02-24T12:29:59.240Z,1010.64
2017-02-24T12:31:09.384Z,1010.72
2017-02-24T12:32:19.948Z,1010.61
2017-02-24T12:33:29.682Z,1010.66
2017-02-24T12:34:39.171Z,1010.61
2017-02-24T12:35:48.501Z,1010.66
2017-02-24T12:36:57.828Z,1010.63
2017-02-24T12:38:07.583Z,1010.76
2017-02-24T12:39:16.940Z,1010.74
2017-02-24T12:40:25.968Z,1010.76
2017-02-24T12:41:35.715Z,1010.88
2017-02-24T12:42:45.447Z,1010.92
2017-02-24T12:43:54.809Z,1010.89
2017-02-24T12:45:04.584Z,1010.81
2017-02-24T12:46:14.477Z,1010.76
2017-02-24T12:47:24.248Z,1010.77
2017-02-24T12:48:34.806Z,1010.76
2017-02-24T12:49:43.730Z,1010.78
2017-02-24T12:50:53.471Z,1010.81
2017-02-24T12:52:03.781Z,1010.88
2017-02-24T12:53:13.941Z,1010.86
2017-02-24T12:54:23.682Z,1010.83
2017-02-24T12:55:33.428Z,1010.87
2017-02-24T12:56:42.751Z,1010.85
2017-02-24T12:57:52.155Z,1010.95
2017-02-24T12:59:01.489Z,1010.92
2017-02-24T13:00:10.830Z,1010.91
2017-02-24T13:01:20.162Z,1010.98
2017-02-24T13:02:29.479Z,1011.3
2017-02-24T13:03:38.876Z,1011.03
2017-02-24T13:04:48.221Z,1011.07
2017-02-24T13:05:57.176Z,1011.14
2017-02-24T13:07:07.339Z,1011.15
2017-02-24T13:08:16.661Z,1011.25
2017-02-24T13:09:25.657Z,1011.16
2017-02-24T13:10:34.994Z,1011.25
2017-02-24T13:11:44.328Z,1011.22
2017-02-24T13:12:53.651Z,1011.25
2017-02-24T13:14:03.392Z,1011.23
2017-02-24T13:15:12.866Z,1011.26
2017-02-24T13:16:22.604Z,1011.26
2017-02-24T13:17:31.533Z,1011.29
2017-02-24T13:18:40.885Z,1011.32
2017-02-24T13:19:50.652Z,1011.28
2017-02-24T13:21:00.041Z,1011.26
2017-02-24T13:22:09.435Z,1011.34
2017-02-24T13:23:18.769Z,1011.33
2017-02-24T13:24:28.105Z,1011.28
2017-02-24T13:25:37.027Z,1011.35
2017-02-24T13:26:46.204Z,1011.3
2017-02-24T13:27:55.533Z,1011.23
2017-02-24T13:29:04.874Z,1011.25
2017-02-24T13:30:14.231Z,1011.28
2017-02-24T13:31:23.987Z,1011.31
2017-02-24T13:32:33.726Z,1011.3
2017-02-24T13:33:43.074Z,1011.4
2017-02-24T13:34:52.008Z,1011.3
2017-02-24T13:36:02.159Z,1011.37
2017-02-24T13:37:11.896Z,1011.45
2017-02-24T13:38:21.320Z,1011.44
2017-02-24T13:39:31.486Z,1011.46
2017-02-24T13:40:40.828Z,1011.4
2017-02-24T13:41:50.579Z,1011.46
2017-02-24T13:43:00.326Z,1011.42
2017-02-24T13:44:09.645Z,1011.48
2017-02-24T13:45:19.378Z,1011.5
2017-02-24T13:46:29.107Z,1011.51
2017-02-24T13:47:38.858Z,1011.49
2017-02-24T13:48:48.182Z,1011.4
2017-02-24T13:49:57.665Z,1011.55
2017-02-24T13:51:06.998Z,1011.48
2017-02-24T13:52:16.320Z,1011.38
2017-02-24T13:53:25.252Z,1011.45
2017-02-24T13:54:34.979Z,1011.48
2017-02-24T13:55:44.507Z,1011.47
2017-02-24T13:56:53.828Z,1011.47
2017-02-24T13:58:03.180Z,1011.47
2017-02-24T13:59:12.954Z,1011.43
2017-02-24T14:00:23.509Z,1011.45
2017-02-24T14:01:33.003Z,1011.41
2017-02-24T14:02:41.923Z,1011.36
2017-02-24T14:03:51.662Z,1011.36
2017-02-24T14:05:01.018Z,1011.44
2017-02-24T14:06:10.756Z,1011.43
2017-02-24T14:07:20.093Z,1011.49
2017-02-24T14:08:29.847Z,1011.59
2017-02-24T14:09:39.593Z,1011.65
2017-02-24T14:10:49.326Z,1011.58
2017-02-24T14:11:58.666Z,1011.62
2017-02-24T14:13:08.112Z,1011.6